Time;durP1;ratioP1;P1;durP2;ratioP2;P2;SDS_P1;SDS_P2;PMS_P1;PMS_P2;Temp;Humidity;BMP_temperature;BMP_pressure;BME280_temperature;BME280_humidity;BME280_pressure;Samples;Min_cycle;Max_cycle;Signal;HPM_P1;HPM_P2
2023/07/12 00:00:22;;;;;;;4.57;2.40;;;;;;;15.92;97.63;99892.25;5125223;28;20020;-64
2023/07/12 00:02:48;;;;;;;2.85;1.67;;;;;;;15.84;97.57;99875.09;5125434;28;20103;-64
2023/07/12 00:05:15;;;;;;;3.53;2.05;;;;;;;15.83;98.33;99873.38;5125541;28;20027;-63
2023/07/12 00:07:40;;;;;;;5.20;1.65;;;;;;;15.83;98.63;99873.38;5125321;28;20051;-65
2023/07/12 00:10:16;;;;;;;3.65;2.03;;;;;;;15.83;98.37;99856.84;5125276;28;20020;-63
2023/07/12 00:12:42;;;;;;;2.92;1.98;;;;;;;15.83;98.36;99857.66;5125200;28;20050;-64
2023/07/12 00:15:11;;;;;;;3.35;2.08;;;;;;;15.79;98.56;99870.94;5125047;28;20020;-63
2023/07/12 00:17:37;;;;;;;3.58;1.67;;;;;;;15.81;98.68;99862.13;5106644;28;20024;-63
2023/07/12 00:20:03;;;;;;;4.13;2.15;;;;;;;15.78;98.68;99853.53;5125164;28;20028;-62
2023/07/12 00:22:29;;;;;;;3.55;2.13;;;;;;;15.74;98.88;99852.81;5125236;28;20019;-62
2023/07/12 00:24:54;;;;;;;5.95;1.90;;;;;;;15.78;99.05;99850.94;5125118;28;20028;-63
2023/07/12 00:27:19;;;;;;;3.95;1.98;;;;;;;15.79;98.77;99847.38;5129342;28;20028;-63
2023/07/12 00:29:45;;;;;;;2.35;1.65;;;;;;;15.79;98.57;99856.09;5129037;28;20038;-63
2023/07/12 00:32:10;;;;;;;3.70;1.83;;;;;;;15.73;98.98;99841.47;5129152;28;20019;-63
2023/07/12 00:34:36;;;;;;;4.70;2.72;;;;;;;15.82;98.24;99845.50;5129110;28;20044;-63
2023/07/12 00:37:01;;;;;;;3.08;2.30;;;;;;;15.83;97.84;99834.13;5129301;28;20041;-60
2023/07/12 00:39:26;;;;;;;2.42;1.95;;;;;;;15.73;98.26;99819.69;5128980;28;20060;-61
2023/07/12 00:42:04;;;;;;;3.97;1.75;;;;;;;15.85;98.10;99813.97;5129120;28;20430;-61
2023/07/12 00:44:34;;;;;;;4.72;2.25;;;;;;;15.88;97.57;99806.94;5128993;28;20028;-62
2023/07/12 00:47:00;;;;;;;2.30;1.73;;;;;;;15.88;97.28;99807.75;5129209;28;20043;-61
2023/07/12 00:49:26;;;;;;;1.20;1.10;;;;;;;15.89;97.07;99811.22;5128858;28;20019;-63
2023/07/12 00:52:11;;;;;;;3.90;1.90;;;;;;;15.88;97.72;99815.59;5129002;28;20027;-62
2023/07/12 00:55:01;;;;;;;4.22;2.20;;;;;;;15.96;96.88;99807.44;5128816;28;20024;-63
2023/07/12 00:57:28;;;;;;;2.90;1.98;;;;;;;15.96;95.86;99799.59;5129054;28;20041;-62
2023/07/12 01:00:10;;;;;;;1.67;1.58;;;;;;;15.91;96.17;99780.63;5128564;28;20091;-63
2023/07/12 01:02:38;;;;;;;3.55;1.90;;;;;;;15.98;95.49;99803.03;5128838;28;20027;-64
2023/07/12 01:05:04;;;;;;;4.18;2.42;;;;;;;15.91;95.70;99798.94;5128322;28;20043;-63
2023/07/12 01:07:31;;;;;;;3.42;2.30;;;;;;;15.97;95.52;99796.06;5128596;28;20023;-64
2023/07/12 01:09:56;;;;;;;3.95;1.55;;;;;;;15.92;95.37;99787.53;5128776;28;20072;-65
2023/07/12 01:12:22;;;;;;;9.55;2.53;;;;;;;15.91;95.40;99765.75;5128696;28;20047;-66
2023/07/12 01:14:48;;;;;;;1.63;1.38;;;;;;;15.90;94.90;99763.19;5128451;28;20026;-66
2023/07/12 01:17:14;;;;;;;3.90;2.03;;;;;;;15.91;94.29;99757.91;5128509;28;20038;-65
2023/07/12 01:19:40;;;;;;;7.70;1.80;;;;;;;15.82;94.55;99761.75;5128517;28;20048;-67
2023/07/12 01:22:06;;;;;;;3.33;1.50;;;;;;;15.85;94.19;99753.78;5128316;28;20016;-68
2023/07/12 01:24:32;;;;;;;1.67;1.08;;;;;;;15.81;94.28;99751.34;5128437;28;20020;-66
2023/07/12 01:27:05;;;;;;;3.42;1.80;;;;;;;15.71;94.13;99762.19;5128308;28;20023;-67
2023/07/12 01:29:31;;;;;;;2.13;1.75;;;;;;;15.64;94.88;99749.44;5109607;28;20024;-67
2023/07/12 01:31:56;;;;;;;2.30;1.40;;;;;;;15.60;94.79;99746.94;5127799;28;20041;-67
2023/07/12 01:34:24;;;;;;;2.22;1.38;;;;;;;15.69;94.42;99742.22;5128232;28;20020;-67
2023/07/12 01:36:49;;;;;;;1.60;1.08;;;;;;;15.68;94.25;99745.75;5127744;28;20471;-67
2023/07/12 01:39:15;;;;;;;4.47;1.77;;;;;;;15.58;94.23;99745.28;5109280;28;20051;-66
2023/07/12 01:41:40;;;;;;;6.43;1.60;;;;;;;15.60;93.69;99736.47;5127982;28;20020;-66
2023/07/12 01:44:06;;;;;;;3.42;1.40;;;;;;;15.64;93.11;99741.56;5127999;28;20023;-65
2023/07/12 01:46:32;;;;;;;2.40;1.48;;;;;;;15.68;92.84;99727.44;5127876;28;20024;-67
2023/07/12 01:48:58;;;;;;;1.83;1.40;;;;;;;15.75;91.41;99739.34;5127748;28;20102;-66
2023/07/12 01:51:23;;;;;;;7.88;1.60;;;;;;;15.59;92.32;99734.75;5127879;28;20445;-66
2023/07/12 01:53:49;;;;;;;2.08;1.60;;;;;;;15.58;91.94;99734.81;5127758;28;20020;-65
2023/07/12 01:56:16;;;;;;;2.40;1.63;;;;;;;15.71;90.36;99732.56;5127757;28;20019;-66
2023/07/12 01:58:41;;;;;;;5.10;1.63;;;;;;;15.59;90.74;99729.50;5127503;28;20472;-69
2023/07/12 02:01:07;;;;;;;2.20;1.45;;;;;;;15.57;90.45;99731.34;5127535;28;20035;-66
2023/07/12 02:03:32;;;;;;;3.03;1.10;;;;;;;15.57;90.23;99726.13;5127599;28;20034;-66
2023/07/12 02:05:58;;;;;;;3.13;1.63;;;;;;;15.55;90.05;99714.88;5127501;28;20103;-66
2023/07/12 02:08:24;;;;;;;3.17;2.47;;;;;;;15.59;89.88;99726.06;5127463;28;20031;-66
2023/07/12 02:10:49;;;;;;;7.90;2.05;;;;;;;15.57;90.45;99723.50;5109143;28;20468;-68
2023/07/12 02:13:16;;;;;;;1.42;1.33;;;;;;;15.64;89.53;99736.34;5127323;28;20099;-68
2023/07/12 02:15:43;;;;;;;2.15;1.65;;;;;;;15.71;88.45;99727.31;5127194;28;20026;-67
2023/07/12 02:18:10;;;;;;;3.20;1.80;;;;;;;15.70;88.46;99734.31;5127336;28;20020;-67
2023/07/12 02:20:35;;;;;;;1.75;1.55;;;;;;;15.70;88.24;99736.09;5127175;28;20076;-67
2023/07/12 02:23:00;;;;;;;5.60;1.75;;;;;;;15.65;88.22;99731.03;5127144;28;20035;-68
2023/07/12 02:25:26;;;;;;;3.45;1.92;;;;;;;15.61;88.29;99717.22;5127223;28;20015;-66
2023/07/12 02:27:51;;;;;;;3.22;1.83;;;;;;;15.65;88.24;99717.09;5126945;28;20128;-66
2023/07/12 02:30:26;;;;;;;4.50;1.52;;;;;;;15.61;88.67;99722.47;5126734;28;20059;-66
2023/07/12 02:32:52;;;;;;;6.38;2.75;;;;;;;15.61;88.49;99721.59;5127124;28;20039;-66
2023/07/12 02:35:19;;;;;;;2.47;2.25;;;;;;;15.69;87.60;99711.69;5126843;28;20020;-66
2023/07/12 02:37:44;;;;;;;3.80;1.60;;;;;;;15.60;87.96;99698.97;5126970;28;20032;-66
2023/07/12 02:40:11;;;;;;;6.47;2.05;;;;;;;15.65;87.66;99694.41;5126644;28;20150;-66
2023/07/12 02:42:37;;;;;;;1.17;1.08;;;;;;;15.72;86.02;99689.75;5126726;28;20028;-67
2023/07/12 02:45:03;;;;;;;2.45;1.80;;;;;;;15.68;85.75;99688.19;5126553;28;20035;-66
2023/07/12 02:47:28;;;;;;;2.90;1.52;;;;;;;15.76;85.12;99685.25;5108294;28;20121;-68
2023/07/12 02:49:54;;;;;;;5.15;1.70;;;;;;;15.83;84.38;99689.34;5125712;28;20028;-66
2023/07/12 02:52:19;;;;;;;1.95;1.60;;;;;;;15.60;84.74;99647.50;5126603;28;20093;-66
2023/07/12 02:54:44;;;;;;;1.38;1.08;;;;;;;15.70;84.16;99662.81;5126673;28;20030;-66
2023/07/12 02:57:12;;;;;;;2.17;1.50;;;;;;;15.77;83.25;99663.44;5126515;28;20084;-68
2023/07/12 02:59:37;;;;;;;1.58;1.20;;;;;;;15.81;82.89;99662.38;5126102;28;20030;-66
2023/07/12 03:02:04;;;;;;;2.10;1.55;;;;;;;15.79;82.44;99656.34;5126384;28;20028;-67
2023/07/12 03:04:30;;;;;;;2.08;1.30;;;;;;;15.73;82.79;99658.28;5126209;28;20028;-68
2023/07/12 03:06:55;;;;;;;2.45;1.50;;;;;;;15.73;82.64;99657.47;5107902;28;20057;-66
2023/07/12 03:09:21;;;;;;;1.92;1.10;;;;;;;15.84;81.33;99646.53;5126262;28;20023;-67
2023/07/12 03:11:47;;;;;;;2.10;1.65;;;;;;;15.90;79.91;99648.03;5126145;28;20103;-68
2023/07/12 03:14:20;;;;;;;6.38;1.50;;;;;;;15.80;80.86;99637.94;5107648;28;20027;-67
2023/07/12 03:16:46;;;;;;;1.10;0.88;;;;;;;15.76;80.88;99633.78;5126156;28;20027;-66
2023/07/12 03:19:13;;;;;;;2.55;1.27;;;;;;;15.82;79.80;99635.28;5126142;28;20101;-68
2023/07/12 03:21:38;;;;;;;1.38;0.90;;;;;;;15.89;78.84;99631.50;5126071;28;20020;-68
2023/07/12 03:24:05;;;;;;;1.35;1.08;;;;;;;15.88;78.69;99616.69;5126017;28;20050;-69
2023/07/12 03:26:31;;;;;;;3.20;1.58;;;;;;;15.95;78.15;99614.66;5125723;28;20038;-68
2023/07/12 03:28:58;;;;;;;2.45;1.75;;;;;;;15.92;77.89;99586.00;5125577;28;20023;-67
2023/07/12 03:31:24;;;;;;;1.52;1.15;;;;;;;15.89;77.70;99583.53;5107321;28;20034;-69
2023/07/12 03:33:50;;;;;;;6.22;1.20;;;;;;;15.85;78.23;99594.13;5125848;28;20030;-67
2023/07/12 03:36:16;;;;;;;2.05;1.33;;;;;;;15.75;78.99;99587.56;5125897;28;20028;-68
2023/07/12 03:38:42;;;;;;;0.90;0.90;;;;;;;15.86;78.38;99589.75;5125667;28;20058;-72
2023/07/12 03:41:10;;;;;;;1.05;0.95;;;;;;;15.86;78.33;99594.97;5125581;28;20379;-67
2023/07/12 03:43:36;;;;;;;0.93;0.80;;;;;;;15.86;77.69;99598.44;5107295;28;20023;-70
2023/07/12 03:46:03;;;;;;;1.20;1.10;;;;;;;15.76;78.53;99599.75;5107313;28;20038;-68
2023/07/12 03:48:29;;;;;;;4.28;1.63;;;;;;;15.79;78.51;99604.88;5125622;28;20027;-68
2023/07/12 03:50:57;;;;;;;2.05;1.23;;;;;;;15.78;78.87;99603.16;5125583;28;20033;-69
2023/07/12 03:53:27;;;;;;;3.03;1.70;;;;;;;15.76;79.13;99589.28;5106857;28;20079;-69
2023/07/12 03:55:55;;;;;;;1.65;1.40;;;;;;;15.82;78.31;99604.72;5125652;28;20031;-70
2023/07/12 03:58:23;;;;;;;3.70;1.73;;;;;;;15.77;78.74;99598.00;5107076;28;20023;-69
2023/07/12 04:00:50;;;;;;;1.23;1.13;;;;;;;15.82;78.43;99590.78;5125276;28;20019;-69
2023/07/12 04:03:16;;;;;;;2.05;1.48;;;;;;;15.86;77.48;99587.13;5125450;28;20016;-70
2023/07/12 04:05:42;;;;;;;7.07;1.98;;;;;;;15.79;78.27;99593.53;5125378;28;20525;-69
2023/07/12 04:08:10;;;;;;;1.58;1.10;;;;;;;15.86;77.60;99593.19;5125452;28;20104;-70
2023/07/12 04:10:36;;;;;;;3.88;1.52;;;;;;;15.86;78.07;99598.44;5125310;28;20035;-66
2023/07/12 04:13:02;;;;;;;2.38;1.33;;;;;;;15.86;77.83;99600.22;5106986;28;20415;-68
2023/07/12 04:15:28;;;;;;;1.02;0.90;;;;;;;15.61;78.38;99607.34;5106778;28;20033;-69
2023/07/12 04:17:53;;;;;;;3.92;1.50;;;;;;;15.28;79.69;99617.44;5125446;28;20023;-68
2023/07/12 04:20:19;;;;;;;2.35;1.20;;;;;;;15.02;81.29;99616.72;5125320;28;20070;-71
2023/07/12 04:22:48;;;;;;;3.38;1.60;;;;;;;15.00;81.98;99648.16;5125468;28;20019;-69
2023/07/12 04:25:14;;;;;;;4.03;1.23;;;;;;;14.97;82.52;99648.25;5125304;28;20024;-69
2023/07/12 04:27:39;;;;;;;1.05;0.80;;;;;;;15.03;82.40;99649.81;5106847;28;20027;-69
2023/07/12 04:30:07;;;;;;;7.75;1.63;;;;;;;15.15;82.38;99645.84;5124973;28;20479;-68
2023/07/12 04:32:33;;;;;;;1.10;1.00;;;;;;;15.19;82.29;99655.28;5106951;28;20337;-68
2023/07/12 04:34:59;;;;;;;1.85;1.05;;;;;;;15.27;82.00;99660.19;5125257;28;20055;-68
2023/07/12 04:37:24;;;;;;;2.92;1.60;;;;;;;15.30;82.01;99675.78;5125751;28;20065;-69
2023/07/12 04:39:50;;;;;;;2.20;1.50;;;;;;;15.22;81.90;99676.91;5125678;28;20050;-64
2023/07/12 04:42:15;;;;;;;2.97;1.25;;;;;;;15.05;82.58;99674.97;5106825;28;20069;-61
2023/07/12 04:44:41;;;;;;;1.77;1.25;;;;;;;14.77;83.63;99673.38;5106775;28;20504;-59
2023/07/12 04:47:07;;;;;;;5.70;1.83;;;;;;;14.53;85.07;99694.28;5125226;28;20460;-59
2023/07/12 04:49:33;;;;;;;9.43;1.42;;;;;;;14.37;86.43;99647.84;5125076;28;20019;-59
2023/07/12 04:51:58;;;;;;;13.43;2.25;;;;;;;14.22;88.09;99636.19;5124885;28;20076;-61
2023/07/12 04:54:24;;;;;;;0.20;0.20;;;;;;;14.08;89.43;99622.78;5125092;28;20035;-60
2023/07/12 04:56:49;;;;;;;0.65;0.65;;;;;;;14.01;90.76;99611.69;5124979;28;20055;-61
2023/07/12 04:59:15;;;;;;;0.20;0.20;;;;;;;13.97;91.98;99610.97;5124866;28;20019;-61
2023/07/12 05:01:41;;;;;;;0.20;0.20;;;;;;;13.96;93.19;99618.84;5125072;28;20015;-60
2023/07/12 05:04:07;;;;;;;0.30;0.30;;;;;;;13.91;94.36;99603.38;5125012;28;20019;-61
2023/07/12 05:06:32;;;;;;;0.20;0.20;;;;;;;13.90;95.34;99600.81;5107051;28;20016;-61
2023/07/12 05:08:58;;;;;;;0.30;0.30;;;;;;;13.95;96.14;99607.56;5125066;28;20026;-61
2023/07/12 05:11:23;;;;;;;0.20;0.20;;;;;;;13.91;96.85;99616.41;5125381;28;20035;-60
2023/07/12 05:13:49;;;;;;;0.57;0.57;;;;;;;13.97;97.23;99612.72;5128582;28;20028;-61
2023/07/12 05:16:14;;;;;;;0.73;0.73;;;;;;;13.93;98.08;99618.97;5128453;28;20075;-60
2023/07/12 05:18:40;;;;;;;0.20;0.20;;;;;;;13.90;98.69;99614.69;5128415;28;20047;-61
2023/07/12 05:21:05;;;;;;;0.20;0.20;;;;;;;13.89;99.81;99618.22;5128615;28;20019;-61
2023/07/12 05:23:30;;;;;;;0.20;0.20;;;;;;;13.88;100.00;99619.13;5128446;28;20444;-62
2023/07/12 05:25:56;;;;;;;0.30;0.30;;;;;;;13.87;100.00;99620.88;5128556;28;20045;-61
2023/07/12 05:28:22;;;;;;;2.83;2.05;;;;;;;13.91;100.00;99626.84;5110198;28;20045;-62
2023/07/12 05:30:48;;;;;;;0.20;0.20;;;;;;;13.78;100.00;99617.72;5128122;28;20024;-61
2023/07/12 05:33:14;;;;;;;0.30;0.30;;;;;;;13.83;100.00;99619.28;5109769;28;20502;-62
2023/07/12 05:35:39;;;;;;;0.20;0.20;;;;;;;13.88;100.00;99619.13;5128331;28;20028;-62
2023/07/12 05:38:05;;;;;;;0.22;0.22;;;;;;;13.90;100.00;99630.34;5127870;28;20020;-61
2023/07/12 05:40:30;;;;;;;0.30;0.30;;;;;;;13.97;100.00;99620.56;5127943;28;20046;-61
2023/07/12 05:42:56;;;;;;;0.20;0.20;;;;;;;13.99;100.00;99618.75;5128221;28;20072;-61
2023/07/12 05:45:23;;;;;;;0.20;0.20;;;;;;;13.92;100.00;99618.09;5109367;28;20387;-61
2023/07/12 05:47:49;;;;;;;0.20;0.20;;;;;;;13.94;100.00;99611.09;5127942;28;20024;-61
2023/07/12 05:50:16;;;;;;;0.43;0.43;;;;;;;13.92;100.00;99620.72;5127894;28;20035;-61
2023/07/12 05:52:42;;;;;;;0.20;0.20;;;;;;;13.95;100.00;99623.22;5127867;28;20015;-61
2023/07/12 05:55:09;;;;;;;0.22;0.22;;;;;;;13.94;100.00;99626.75;5127806;28;20096;-61
2023/07/12 05:57:35;;;;;;;0.22;0.22;;;;;;;13.97;100.00;99625.78;5127918;28;20484;-60
2023/07/12 06:00:01;;;;;;;0.20;0.20;;;;;;;13.98;100.00;99630.94;5127504;28;20503;-62
2023/07/12 06:02:27;;;;;;;0.20;0.20;;;;;;;13.95;100.00;99622.34;5127723;28;20361;-60
2023/07/12 06:04:52;;;;;;;0.20;0.20;;;;;;;14.02;100.00;99628.22;5127828;28;20063;-62
2023/07/12 06:07:18;;;;;;;0.30;0.30;;;;;;;14.04;100.00;99621.19;5109166;28;20436;-62
2023/07/12 06:09:44;;;;;;;0.40;0.40;;;;;;;14.03;100.00;99615.13;5127551;28;20023;-61
2023/07/12 06:12:10;;;;;;;0.30;0.30;;;;;;;14.06;100.00;99621.97;5127410;28;20020;-62
2023/07/12 06:14:36;;;;;;;0.20;0.20;;;;;;;14.08;100.00;99621.03;5127524;28;20026;-61
2023/07/12 06:17:02;;;;;;;0.30;0.30;;;;;;;14.05;100.00;99612.44;5127389;28;20046;-63
2023/07/12 06:19:27;;;;;;;0.20;0.20;;;;;;;14.07;100.00;99616.72;5127408;28;20027;-60
2023/07/12 06:21:53;;;;;;;0.30;0.30;;;;;;;14.11;100.00;99613.09;5127315;28;20076;-62
2023/07/12 06:24:18;;;;;;;0.22;0.22;;;;;;;14.15;100.00;99616.44;5126132;28;20031;-62
2023/07/12 06:26:44;;;;;;;0.22;0.22;;;;;;;14.21;100.00;99615.34;5127368;28;20028;-62
2023/07/12 06:29:10;;;;;;;0.43;0.43;;;;;;;14.19;100.00;99598.91;5127012;28;20031;-61
2023/07/12 06:31:35;;;;;;;0.20;0.20;;;;;;;14.13;100.00;99598.22;5127057;28;20024;-61
2023/07/12 06:34:03;;;;;;;0.20;0.20;;;;;;;14.16;100.00;99599.88;5127232;28;20019;-61
2023/07/12 06:36:32;;;;;;;0.20;0.20;;;;;;;14.19;100.00;99607.59;5127173;28;20460;-61
2023/07/12 06:38:58;;;;;;;0.20;0.20;;;;;;;14.20;100.00;99598.84;5108442;28;20055;-61
2023/07/12 06:41:23;;;;;;;0.20;0.20;;;;;;;14.22;100.00;99593.56;5127015;28;20089;-61
2023/07/12 06:43:49;;;;;;;0.20;0.20;;;;;;;14.19;100.00;99591.06;5108407;28;20066;-61
2023/07/12 06:46:15;;;;;;;0.30;0.30;;;;;;;14.25;100.00;99583.00;5126851;28;20020;-61
2023/07/12 06:48:40;;;;;;;0.20;0.20;;;;;;;14.25;100.00;99572.56;5108427;28;20027;-62
2023/07/12 06:51:06;;;;;;;0.20;0.20;;;;;;;14.28;100.00;99567.22;5126642;28;20024;-61
2023/07/12 06:53:31;;;;;;;0.22;0.22;;;;;;;14.24;100.00;99560.44;5108167;28;20023;-61
2023/07/12 06:55:57;;;;;;;0.30;0.30;;;;;;;14.28;100.00;99566.41;5108441;28;20019;-62
2023/07/12 06:58:23;;;;;;;0.20;0.20;;;;;;;14.27;100.00;99562.91;5127410;28;20077;-61
2023/07/12 07:00:48;;;;;;;0.52;0.52;;;;;;;14.29;100.00;99558.50;5126628;28;20024;-61
2023/07/12 07:03:15;;;;;;;0.40;0.40;;;;;;;14.37;100.00;99556.47;5126531;28;20030;-60
2023/07/12 07:05:44;;;;;;;0.63;0.63;;;;;;;14.38;100.00;99565.97;5126209;28;20486;-60
2023/07/12 07:08:11;;;;;;;0.25;0.25;;;;;;;14.42;100.00;99558.03;5126482;28;20154;-62
2023/07/12 07:10:37;;;;;;;0.30;0.30;;;;;;;14.48;100.00;99563.88;5126198;28;20030;-61
2023/07/12 07:13:02;;;;;;;0.20;0.20;;;;;;;14.52;100.00;99561.16;5126375;28;20019;-61
2023/07/12 07:15:28;;;;;;;0.60;0.60;;;;;;;14.58;100.00;99548.72;5107719;28;20019;-62
2023/07/12 07:17:54;;;;;;;0.20;0.20;;;;;;;14.53;100.00;99545.41;5126200;28;20035;-62
2023/07/12 07:20:19;;;;;;;0.30;0.30;;;;;;;14.54;100.00;99547.09;5126059;28;20181;-62
2023/07/12 07:22:45;;;;;;;0.85;0.85;;;;;;;14.65;100.00;99557.13;5126283;28;20012;-60
2023/07/12 07:25:10;;;;;;;3.65;3.33;;;;;;;14.63;100.00;99545.91;5125908;28;20437;-62
2023/07/12 07:27:36;;;;;;;0.20;0.20;;;;;;;14.64;100.00;99547.59;5125829;28;20033;-61
2023/07/12 07:30:02;;;;;;;0.40;0.40;;;;;;;14.65;100.00;99538.84;5125756;28;20042;-68
2023/07/12 07:32:27;;;;;;;0.20;0.20;;;;;;;14.65;100.00;99527.56;5126049;28;20035;-60
2023/07/12 07:34:53;;;;;;;0.47;0.47;;;;;;;14.67;100.00;99530.94;5125457;28;20058;-62
2023/07/12 07:37:18;;;;;;;0.30;0.30;;;;;;;14.65;100.00;99517.13;5125608;28;20051;-61
2023/07/12 07:39:43;;;;;;;0.20;0.20;;;;;;;14.63;100.00;99515.41;5125219;28;20139;-62
2023/07/12 07:42:09;;;;;;;0.30;0.30;;;;;;;14.60;100.00;99517.31;5125629;28;20016;-62
2023/07/12 07:44:34;;;;;;;0.30;0.30;;;;;;;14.58;100.00;99508.66;5125561;28;20046;-63
2023/07/12 07:47:00;;;;;;;0.20;0.20;;;;;;;14.57;100.00;99505.19;5125995;28;20019;-63
2023/07/12 07:49:26;;;;;;;0.20;0.20;;;;;;;14.61;100.00;99506.78;5125630;28;20023;-63
2023/07/12 07:51:51;;;;;;;0.20;0.20;;;;;;;14.61;100.00;99522.47;5125308;28;20131;-61
2023/07/12 07:54:17;;;;;;;0.20;0.20;;;;;;;14.63;100.00;99520.63;5125488;28;20083;-62
2023/07/12 07:56:42;;;;;;;0.95;0.75;;;;;;;14.65;100.00;99514.50;5125428;28;20472;-63
2023/07/12 07:59:08;;;;;;;0.20;0.20;;;;;;;14.71;100.00;99524.72;5125383;28;20510;-62
2023/07/12 08:01:33;;;;;;;0.25;0.25;;;;;;;14.75;100.00;99511.47;5125309;28;20027;-62
2023/07/12 08:03:59;;;;;;;0.20;0.20;;;;;;;14.79;100.00;99500.88;5107026;28;20051;-62
2023/07/12 08:06:24;;;;;;;0.20;0.20;;;;;;;14.82;100.00;99501.66;5125389;28;20053;-63
2023/07/12 08:08:50;;;;;;;0.20;0.20;;;;;;;14.86;100.00;99490.16;5125213;28;20044;-63
2023/07/12 08:11:16;;;;;;;0.20;0.20;;;;;;;14.90;100.00;99484.78;5125080;28;20015;-62
2023/07/12 08:13:41;;;;;;;0.20;0.20;;;;;;;14.93;100.00;99489.91;5125553;28;20027;-66
2023/07/12 08:16:07;;;;;;;0.20;0.20;;;;;;;14.94;100.00;99478.50;5125242;28;20135;-63
2023/07/12 08:18:33;;;;;;;0.20;0.20;;;;;;;14.95;100.00;99481.06;5125395;28;20024;-63
2023/07/12 08:20:58;;;;;;;0.20;0.20;;;;;;;14.96;100.00;99474.09;5125145;28;20031;-63
2023/07/12 08:23:24;;;;;;;0.35;0.35;;;;;;;15.01;100.00;99481.72;5125173;28;20019;-62
2023/07/12 08:25:50;;;;;;;0.20;0.20;;;;;;;14.98;100.00;99467.88;5125301;28;20049;-62
2023/07/12 08:28:16;;;;;;;0.20;0.20;;;;;;;15.05;100.00;99478.09;5125068;28;20041;-63
2023/07/12 08:30:42;;;;;;;0.20;0.20;;;;;;;15.05;100.00;99483.31;5124800;28;20382;-62
2023/07/12 08:33:07;;;;;;;0.20;0.20;;;;;;;15.10;100.00;99476.09;5106699;28;20027;-62
2023/07/12 08:35:32;;;;;;;0.20;0.20;;;;;;;15.13;100.00;99467.31;5125000;28;20020;-62
2023/07/12 08:37:58;;;;;;;0.20;0.20;;;;;;;15.17;100.00;99464.50;5125032;28;20065;-62
2023/07/12 08:40:24;;;;;;;0.30;0.30;;;;;;;15.22;100.00;99457.28;5124878;28;20075;-61
2023/07/12 08:42:50;;;;;;;0.20;0.20;;;;;;;15.24;100.00;99436.28;5125059;28;20016;-61
2023/07/12 08:45:27;;;;;;;0.20;0.20;;;;;;;15.29;100.00;99431.72;5124593;28;20122;-63
2023/07/12 08:47:57;;;;;;;0.20;0.20;;;;;;;15.35;100.00;99435.84;5127897;28;20063;-62
2023/07/12 08:50:24;;;;;;;0.20;0.20;;;;;;;15.36;100.00;99435.78;5128770;28;20016;-63
2023/07/12 08:52:49;;;;;;;0.20;0.20;;;;;;;15.39;100.00;99413.00;5128767;28;20049;-63
2023/07/12 08:55:20;;;;;;;0.20;0.20;;;;;;;15.41;100.00;99411.19;5129061;28;20024;-63
2023/07/12 08:58:18;;;;;;;0.30;0.30;;;;;;;15.48;100.00;99417.81;5128985;28;20027;-62
2023/07/12 09:00:45;;;;;;;0.20;0.20;;;;;;;15.54;100.00;99414.97;5104301;28;20036;-63
2023/07/12 09:03:10;;;;;;;0.20;0.20;;;;;;;15.51;100.00;99391.53;5128977;28;20023;-63
2023/07/12 09:05:36;;;;;;;0.20;0.20;;;;;;;15.64;100.00;99412.75;5128747;28;20020;-63
2023/07/12 09:08:40;;;;;;;0.20;0.20;;;;;;;15.75;100.00;99414.88;5128538;28;20188;-64
2023/07/12 09:11:17;;;;;;;0.20;0.20;;;;;;;15.81;100.00;99412.00;5115133;28;20039;-64
2023/07/12 09:13:46;;;;;;;0.20;0.20;;;;;;;15.86;100.00;99407.38;5128463;28;20043;-64
2023/07/12 09:16:22;;;;;;;0.20;0.20;;;;;;;15.85;100.00;99405.69;5128439;28;20023;-64
2023/07/12 09:18:52;;;;;;;0.20;0.20;;;;;;;15.85;100.00;99405.69;5128683;28;20027;-63
2023/07/12 09:21:33;;;;;;;0.20;0.20;;;;;;;15.91;100.00;99409.78;5128213;28;20034;-63
2023/07/12 09:24:11;;;;;;;0.20;0.20;;;;;;;15.91;100.00;99404.53;5128109;28;20024;-63
2023/07/12 09:26:36;;;;;;;0.20;0.20;;;;;;;15.91;100.00;99409.78;5128173;28;20079;-64
2023/07/12 09:29:11;;;;;;;0.20;0.20;;;;;;;15.92;100.00;99402.78;5128178;28;20028;-63
2023/07/12 09:31:40;;;;;;;0.20;0.20;;;;;;;15.97;100.00;99416.50;5127767;28;20051;-69
2023/07/12 09:34:14;;;;;;;0.20;0.20;;;;;;;15.97;100.00;99404.28;5127907;28;20019;-64
2023/07/12 09:36:40;;;;;;;0.20;0.20;;;;;;;15.98;100.00;99399.91;5127899;28;20027;-63
2023/07/12 09:39:09;;;;;;;0.20;0.20;;;;;;;15.99;100.00;99406.81;5109300;28;20036;-64
2023/07/12 09:41:34;;;;;;;0.20;0.20;;;;;;;16.00;100.00;99398.06;5127873;28;20032;-62
2023/07/12 09:44:01;;;;;;;0.20;0.20;;;;;;;16.02;100.00;99418.94;5127952;28;20024;-63
2023/07/12 09:46:58;;;;;;;0.20;0.20;;;;;;;16.05;100.00;99416.19;5109427;28;20024;-64
2023/07/12 09:49:36;;;;;;;0.20;0.20;;;;;;;16.04;100.00;99425.78;5124678;28;20105;-64
2023/07/12 09:52:25;;;;;;;0.20;0.20;;;;;;;16.03;100.00;99428.47;5127750;28;20045;-64
2023/07/12 09:55:09;;;;;;;0.20;0.20;;;;;;;15.99;100.00;99427.78;5127814;28;20422;-63
2023/07/12 09:57:53;;;;;;;0.20;0.20;;;;;;;15.98;100.00;99436.56;5127954;28;20083;-65
2023/07/12 10:00:29;;;;;;;0.40;0.40;;;;;;;15.99;100.00;99440.84;5127477;28;20054;-64
2023/07/12 10:03:13;;;;;;;0.20;0.20;;;;;;;15.98;100.00;99428.69;5127649;28;20066;-64
2023/07/12 10:05:44;;;;;;;0.20;0.20;;;;;;;16.03;100.00;99431.97;5109121;28;20028;-63
2023/07/12 10:08:14;;;;;;;0.28;0.28;;;;;;;16.08;100.00;99432.59;5127759;28;20020;-65
2023/07/12 10:10:45;;;;;;;0.20;0.20;;;;;;;15.97;100.00;99430.47;5127514;28;20031;-64
2023/07/12 10:13:38;;;;;;;0.55;0.55;;;;;;;16.02;100.00;99438.13;5127400;28;20039;-64
2023/07/12 10:16:14;;;;;;;0.20;0.20;;;;;;;15.97;100.00;99434.84;5127024;28;20030;-66
2023/07/12 10:18:40;;;;;;;0.20;0.20;;;;;;;15.97;100.00;99426.97;5127350;28;20024;-62
2023/07/12 10:21:08;;;;;;;0.50;0.50;;;;;;;15.89;100.00;99419.50;5127378;28;20030;-60
2023/07/12 10:23:43;;;;;;;0.20;0.20;;;;;;;15.79;100.00;99423.44;5127344;28;20015;-59
2023/07/12 10:26:13;;;;;;;0.20;0.20;;;;;;;15.70;100.00;99422.09;5127089;28;20035;-59
2023/07/12 10:28:47;;;;;;;0.20;0.20;;;;;;;15.65;100.00;99418.84;5127031;28;20562;-59
2023/07/12 10:31:19;;;;;;;0.20;0.20;;;;;;;15.61;100.00;99429.44;5126868;28;20032;-60
2023/07/12 10:33:49;;;;;;;0.20;0.20;;;;;;;15.60;100.00;99435.59;5127101;28;20039;-60
2023/07/12 10:36:24;;;;;;;0.20;0.20;;;;;;;15.60;100.00;99430.38;5126972;28;20038;-60
2023/07/12 10:38:49;;;;;;;2.10;0.95;;;;;;;15.58;100.00;99428.72;5126506;28;20020;-60
2023/07/12 10:41:32;;;;;;;0.20;0.20;;;;;;;15.65;100.00;99431.94;5126855;28;20019;-59
2023/07/12 10:44:30;;;;;;;0.20;0.20;;;;;;;15.65;100.00;99427.56;5126947;28;20019;-63
2023/07/12 10:47:03;;;;;;;0.20;0.20;;;;;;;15.68;100.00;99424.78;5126858;28;20084;-62
2023/07/12 10:49:52;;;;;;;0.20;0.20;;;;;;;15.69;100.00;99430.84;5126718;28;20055;-62
2023/07/12 10:52:33;;;;;;;0.20;0.20;;;;;;;15.66;100.00;99423.16;5126714;28;20027;-63
2023/07/12 10:55:06;;;;;;;0.20;0.20;;;;;;;15.71;100.00;99431.63;5126658;28;20033;-62
2023/07/12 10:57:48;;;;;;;0.20;0.20;;;;;;;15.73;100.00;99432.44;5126421;28;20020;-63
2023/07/12 11:00:16;;;;;;;0.30;0.30;;;;;;;15.78;100.00;99429.59;5126265;28;20019;-62
2023/07/12 11:03:02;;;;;;;0.20;0.20;;;;;;;15.79;100.00;99428.66;5126468;28;20094;-63
2023/07/12 11:05:56;;;;;;;0.40;0.40;;;;;;;15.73;100.00;99420.19;5126447;28;20045;-61
2023/07/12 11:08:30;;;;;;;0.20;0.20;;;;;;;15.81;100.00;99424.22;5126176;28;20053;-62
2023/07/12 11:11:00;;;;;;;0.20;0.20;;;;;;;15.81;100.00;99425.09;5125572;28;20510;-61
2023/07/12 11:13:33;;;;;;;0.20;0.20;;;;;;;15.81;100.00;99425.09;5125620;28;20062;-62
2023/07/12 11:16:12;;;;;;;0.20;0.20;;;;;;;15.84;100.00;99422.31;5126052;28;20023;-63
2023/07/12 11:18:38;;;;;;;0.20;0.20;;;;;;;15.91;100.00;99428.09;5126274;28;20053;-62
2023/07/12 11:21:07;;;;;;;0.20;0.20;;;;;;;15.94;100.00;99421.88;5125927;28;20019;-61
2023/07/12 11:23:38;;;;;;;0.20;0.20;;;;;;;16.02;100.00;99413.72;5126038;28;20480;-62
2023/07/12 11:26:28;;;;;;;0.30;0.30;;;;;;;16.08;100.00;99405.56;5125930;28;20024;-62
2023/07/12 11:29:29;;;;;;;0.20;0.20;;;;;;;16.15;100.00;99400.88;5125904;28;20028;-64
2023/07/12 11:32:30;;;;;;;0.20;0.20;;;;;;;16.18;100.00;99390.25;5125802;28;20028;-64
2023/07/12 11:35:12;;;;;;;0.20;0.20;;;;;;;16.17;100.00;99383.31;5122591;28;20044;-64